createdAt,value
2022-10-09T00:00:23.132Z,99621.28
2022-10-09T00:01:57.140Z,99637.16
2022-10-09T00:03:30.460Z,99615.22
2022-10-09T00:05:05.667Z,99609.94
2022-10-09T00:06:39.518Z,99609.94
2022-10-09T00:08:13.123Z,99611.66
2022-10-09T00:09:47.262Z,99609.84
2022-10-09T00:11:22.552Z,99611.56
2022-10-09T00:12:54.748Z,99606.31
2022-10-09T00:14:28.023Z,99612.50
2022-10-09T00:16:03.355Z,99610.72
2022-10-09T00:17:36.867Z,99613.56
2022-10-09T00:19:09.986Z,99603.16
2022-10-09T00:20:46.762Z,99608.34
2022-10-09T00:22:20.054Z,99604.91
2022-10-09T00:23:55.550Z,99612.97
2022-10-09T00:25:29.109Z,99605.13
2022-10-09T00:27:02.272Z,99606.94
2022-10-09T00:28:38.668Z,99598.22
2022-10-09T00:30:13.473Z,99602.69
2022-10-09T00:31:46.666Z,99600.25
2022-10-09T00:33:19.355Z,99611.75
2022-10-09T00:34:52.939Z,99603.94
2022-10-09T00:36:28.290Z,99611.19
2022-10-09T00:38:00.434Z,99600.63
2022-10-09T00:39:33.674Z,99605.97
2022-10-09T00:41:07.795Z,99601.59
2022-10-09T00:42:41.509Z,99617.34
2022-10-09T00:44:57.773Z,99592.19
2022-10-09T00:46:37.803Z,99605.13
2022-10-09T00:48:12.890Z,99604.31
2022-10-09T00:49:46.402Z,99602.59
2022-10-09T00:51:19.589Z,99604.31
2022-10-09T00:52:58.533Z,99605.16
2022-10-09T00:54:35.677Z,99599.91
2022-10-09T00:56:09.271Z,99598.97
2022-10-09T00:57:44.413Z,99607.69
2022-10-09T00:59:18.933Z,99603.34
2022-10-09T01:00:51.632Z,99598.25
2022-10-09T01:02:24.880Z,99602.75
2022-10-09T01:03:58.340Z,99589.81
2022-10-09T01:05:44.376Z,99595.75
2022-10-09T01:07:34.626Z,99594.09
2022-10-09T01:09:13.694Z,99602.72
2022-10-09T01:10:53.124Z,99598.28
2022-10-09T01:12:37.616Z,99592.25
2022-10-09T01:14:19.774Z,99609.66
2022-10-09T01:15:56.189Z,99603.50
2022-10-09T01:17:35.597Z,99604.53
2022-10-09T01:19:21.592Z,99613.41
2022-10-09T01:20:59.407Z,99602.81
2022-10-09T01:22:47.381Z,99602.81
2022-10-09T01:24:31.282Z,99604.63
2022-10-09T01:26:14.656Z,99600.28
2022-10-09T01:27:49.523Z,99595.94
2022-10-09T01:29:24.770Z,99594.34
2022-10-09T01:31:01.454Z,99596.25
2022-10-09T01:32:39.260Z,99593.91
2022-10-09T01:34:14.256Z,99605.31
2022-10-09T01:35:48.520Z,99591.41
2022-10-09T01:37:24.509Z,99605.53
2022-10-09T01:38:59.932Z,99602.06
2022-10-09T01:40:33.375Z,99605.59
2022-10-09T01:42:07.806Z,99599.50
2022-10-09T01:43:43.351Z,99605.53
2022-10-09T01:45:17.221Z,99605.47
2022-10-09T01:46:49.764Z,99605.44
2022-10-09T01:48:26.044Z,99596.78
2022-10-09T01:50:05.219Z,99609.09
2022-10-09T01:51:45.360Z,99614.41
2022-10-09T01:53:21.283Z,99617.06
2022-10-09T01:55:09.259Z,99613.53
2022-10-09T01:56:44.928Z,99617.88
2022-10-09T01:58:23.191Z,99619.59
2022-10-09T02:00:00.507Z,99617.81
2022-10-09T02:01:37.160Z,99621.25
2022-10-09T02:03:14.633Z,99628.16
2022-10-09T02:04:49.939Z,99618.41
2022-10-09T02:06:22.141Z,99605.44
2022-10-09T02:07:56.659Z,99618.41
2022-10-09T02:09:31.760Z,99626.28
2022-10-09T02:11:05.586Z,99621.94
2022-10-09T02:12:43.808Z,99619.41
2022-10-09T02:14:17.507Z,99606.50
2022-10-09T02:15:57.356Z,99624.88
2022-10-09T02:17:34.967Z,99617.97
2022-10-09T02:19:14.321Z,99618.88
2022-10-09T02:20:53.123Z,99619.81
2022-10-09T02:22:28.918Z,99619.91
2022-10-09T02:24:03.607Z,99616.50
2022-10-09T02:25:37.347Z,99634.19
2022-10-09T02:27:12.501Z,99627.19
2022-10-09T02:28:46.336Z,99639.44
2022-10-09T02:30:22.081Z,99635.97
2022-10-09T02:31:55.832Z,99637.84
2022-10-09T02:33:32.538Z,99639.56
2022-10-09T02:35:06.649Z,99636.94
2022-10-09T02:36:39.788Z,99636.06
2022-10-09T02:38:12.989Z,99645.59
2022-10-09T02:39:46.550Z,99641.91
2022-10-09T02:41:18.751Z,99622.91
2022-10-09T02:42:52.015Z,99636.59
2022-10-09T02:44:25.314Z,99638.34
2022-10-09T02:45:57.836Z,99639.19
2022-10-09T02:47:32.468Z,99634.78
2022-10-09T02:49:05.890Z,99635.72
2022-10-09T02:50:37.995Z,99631.31
2022-10-09T02:52:11.712Z,99630.47
2022-10-09T02:53:45.218Z,99623.44
2022-10-09T02:55:18.380Z,99634.06
2022-10-09T02:56:50.548Z,99625.44
2022-10-09T02:58:24.240Z,99637.78
2022-10-09T02:59:57.774Z,99630.69
2022-10-09T03:01:32.302Z,99623.69
2022-10-09T03:03:06.246Z,99632.50
2022-10-09T03:04:39.677Z,99630.78
2022-10-09T03:06:14.235Z,99628.19
2022-10-09T03:07:51.555Z,99634.38
2022-10-09T03:09:25.085Z,99631.81
2022-10-09T03:10:58.741Z,99633.63
2022-10-09T03:12:31.891Z,99638.09
2022-10-09T03:14:05.022Z,99631.03
2022-10-09T03:15:38.732Z,99640.72
2022-10-09T03:17:12.186Z,99639.06
2022-10-09T03:18:47.236Z,99631.22
2022-10-09T03:20:19.564Z,99631.25
2022-10-09T03:21:52.744Z,99634.81
2022-10-09T03:23:26.155Z,99637.47
2022-10-09T03:24:59.373Z,99638.28
2022-10-09T03:26:32.804Z,99642.69
2022-10-09T03:28:06.340Z,99644.50
2022-10-09T03:29:38.619Z,99641.91
2022-10-09T03:31:22.597Z,99657.78
2022-10-09T03:33:00.949Z,99649.97
2022-10-09T03:34:34.465Z,99652.56
2022-10-09T03:36:08.831Z,99649.13
2022-10-09T03:37:42.091Z,99663.13
2022-10-09T03:39:15.482Z,99654.34
2022-10-09T03:40:47.722Z,99651.72
2022-10-09T03:42:21.011Z,99652.63
2022-10-09T03:43:54.159Z,99657.88
2022-10-09T03:45:26.511Z,99662.22
2022-10-09T03:47:00.370Z,99661.38
2022-10-09T03:48:33.746Z,99663.06
2022-10-09T03:50:09.499Z,99657.75
2022-10-09T03:51:42.784Z,99661.16
2022-10-09T03:53:15.594Z,99659.44
2022-10-09T03:54:49.078Z,99663.91
2022-10-09T03:56:21.211Z,99664.03
2022-10-09T03:57:54.566Z,99657.09
2022-10-09T03:59:27.876Z,99668.41
2022-10-09T04:01:00.220Z,99666.63
2022-10-09T04:02:34.453Z,99664.00
2022-10-09T04:04:08.142Z,99650.03
2022-10-09T04:05:42.657Z,99655.38
2022-10-09T04:07:16.615Z,99654.53
2022-10-09T04:08:48.740Z,99651.88
2022-10-09T04:10:22.154Z,99649.31
2022-10-09T04:11:55.630Z,99648.53
2022-10-09T04:13:28.977Z,99635.50
2022-10-09T04:15:02.187Z,99656.25
2022-10-09T04:16:34.565Z,99659.66
2022-10-09T04:18:07.945Z,99656.16
2022-10-09T04:19:41.160Z,99657.09
2022-10-09T04:21:15.772Z,99662.34
2022-10-09T04:22:49.292Z,99663.19
2022-10-09T04:24:22.868Z,99663.19
2022-10-09T04:25:57.110Z,99667.66
2022-10-09T04:27:30.850Z,99673.84
2022-10-09T04:29:03.208Z,99670.31
2022-10-09T04:30:36.375Z,99665.91
2022-10-09T04:32:10.270Z,99669.41
2022-10-09T04:33:42.518Z,99668.44
2022-10-09T04:35:16.880Z,99665.78
2022-10-09T04:36:51.439Z,99671.88
2022-10-09T04:38:24.564Z,99670.97
2022-10-09T04:39:57.735Z,99669.25
2022-10-09T04:41:32.573Z,99669.19
2022-10-09T04:43:07.996Z,99673.63
2022-10-09T04:44:41.545Z,99667.47
2022-10-09T04:46:16.220Z,99666.63
2022-10-09T04:47:49.636Z,99669.19
2022-10-09T04:49:22.870Z,99676.19
2022-10-09T04:50:56.052Z,99669.16
2022-10-09T04:52:31.096Z,99673.63
2022-10-09T04:54:04.387Z,99676.28
2022-10-09T04:55:41.601Z,99677.25
2022-10-09T04:57:15.163Z,99682.50
2022-10-09T04:58:50.305Z,99659.88
2022-10-09T05:00:24.033Z,99681.53
2022-10-09T05:01:57.228Z,99665.81
2022-10-09T05:03:30.468Z,99677.75
2022-10-09T05:05:03.887Z,99680.16
2022-10-09T05:06:37.224Z,99677.22
2022-10-09T05:08:11.807Z,99679.31
2022-10-09T05:09:45.109Z,99686.56
2022-10-09T05:11:19.477Z,99678.91
2022-10-09T05:12:52.845Z,99677.41
2022-10-09T05:14:26.300Z,99685.78
2022-10-09T05:16:02.386Z,99691.06
2022-10-09T05:17:35.869Z,99684.63
2022-10-09T05:19:09.275Z,99667.81
2022-10-09T05:20:42.718Z,99676.25
2022-10-09T05:22:15.998Z,99676.16
2022-10-09T05:23:50.048Z,99680.50
2022-10-09T05:25:23.420Z,99674.09
2022-10-09T05:26:56.853Z,99680.69
2022-10-09T05:28:30.441Z,99682.81
2022-10-09T05:30:03.741Z,99685.06
2022-10-09T05:31:37.710Z,99684.41
2022-10-09T05:33:11.461Z,99687.91
2022-10-09T05:34:44.899Z,99688.47
2022-10-09T05:36:18.646Z,99694.50
2022-10-09T05:37:52.210Z,99693.34
2022-10-09T05:39:27.021Z,99701.00
2022-10-09T05:41:02.465Z,99697.22
2022-10-09T05:42:35.596Z,99697.78
2022-10-09T05:44:08.991Z,99703.88
2022-10-09T05:45:42.317Z,99697.59
2022-10-09T05:47:18.278Z,99706.97
2022-10-09T05:48:55.339Z,99702.63
2022-10-09T05:50:28.528Z,99699.91
2022-10-09T05:52:02.180Z,99698.25
2022-10-09T05:53:34.884Z,99703.91
2022-10-09T05:55:09.942Z,99701.28
2022-10-09T05:56:44.393Z,99701.72
2022-10-09T05:58:17.640Z,99693.53
2022-10-09T05:59:50.965Z,99698.31
2022-10-09T06:01:24.847Z,99701.31
2022-10-09T06:02:58.190Z,99696.00
2022-10-09T06:04:31.635Z,99700.16
2022-10-09T06:06:06.419Z,99703.78
2022-10-09T06:07:39.577Z,99702.78
2022-10-09T06:09:13.090Z,99706.28
2022-10-09T06:10:47.618Z,99702.09
2022-10-09T06:12:20.900Z,99701.59
2022-10-09T06:13:53.136Z,99703.03
2022-10-09T06:15:26.430Z,99704.25
2022-10-09T06:17:01.472Z,99705.97
2022-10-09T06:18:34.100Z,99707.25
2022-10-09T06:20:07.986Z,99696.41
2022-10-09T06:21:41.501Z,99708.41
2022-10-09T06:23:13.823Z,99709.13
2022-10-09T06:24:47.242Z,99705.16
2022-10-09T06:26:23.054Z,99702.94
2022-10-09T06:27:56.198Z,99695.78
2022-10-09T06:29:30.379Z,99688.13
2022-10-09T06:31:04.785Z,99702.53
2022-10-09T06:32:37.993Z,99703.91
2022-10-09T06:34:11.847Z,99692.16
2022-10-09T06:35:44.238Z,99705.59
2022-10-09T06:37:17.391Z,99704.53
2022-10-09T06:38:51.053Z,99705.53
2022-10-09T06:40:24.256Z,99699.41
2022-10-09T06:41:59.011Z,99700.84
2022-10-09T06:43:57.229Z,99707.38
2022-10-09T06:45:31.007Z,99703.88
2022-10-09T06:47:04.471Z,99695.09
2022-10-09T06:48:39.304Z,99707.94
2022-10-09T06:50:12.670Z,99700.31
2022-10-09T06:51:46.166Z,99698.19
2022-10-09T06:53:19.577Z,99705.81
2022-10-09T06:54:52.732Z,99706.53
2022-10-09T06:56:27.948Z,99712.38
2022-10-09T06:58:02.503Z,99701.59
2022-10-09T06:59:35.863Z,99703.72
2022-10-09T07:01:11.339Z,99703.81
2022-10-09T07:02:44.604Z,99699.78
2022-10-09T07:04:18.784Z,99708.47
2022-10-09T07:05:52.416Z,99715.53
2022-10-09T07:07:24.860Z,99711.63
2022-10-09T07:09:00.532Z,99710.78
2022-10-09T07:10:33.760Z,99720.16
2022-10-09T07:12:06.990Z,99715.25
2022-10-09T07:13:42.681Z,99720.63
2022-10-09T07:15:16.172Z,99715.84
2022-10-09T07:16:50.204Z,99711.91
2022-10-09T07:18:22.447Z,99697.06
2022-10-09T07:19:55.576Z,99710.94
2022-10-09T07:21:29.118Z,99706.72
2022-10-09T07:23:02.575Z,99713.19
2022-10-09T07:24:35.955Z,99703.31
2022-10-09T07:26:14.624Z,99694.69
2022-10-09T07:27:48.093Z,99703.63
2022-10-09T07:29:22.654Z,99698.47
2022-10-09T07:30:56.475Z,99705.25
2022-10-09T07:32:29.758Z,99709.53
2022-10-09T07:34:03.394Z,99714.97
2022-10-09T07:35:36.580Z,99709.94
2022-10-09T07:37:09.919Z,99713.72
2022-10-09T07:38:43.199Z,99719.22
2022-10-09T07:40:16.605Z,99706.31
2022-10-09T07:41:51.716Z,99708.47
2022-10-09T07:43:25.062Z,99706.56
2022-10-09T07:44:59.805Z,99712.38
2022-10-09T07:46:34.145Z,99703.34
2022-10-09T07:48:08.028Z,99709.00
2022-10-09T07:49:41.515Z,99701.03
2022-10-09T07:51:16.385Z,99708.53
2022-10-09T07:52:50.199Z,99704.59
2022-10-09T07:54:22.750Z,99704.59
2022-10-09T07:55:56.179Z,99700.22
2022-10-09T07:57:29.318Z,99706.22
2022-10-09T07:59:04.291Z,99704.56
2022-10-09T08:00:39.029Z,99708.66
2022-10-09T08:02:12.319Z,99700.22
2022-10-09T08:03:44.702Z,99693.59
2022-10-09T08:05:18.456Z,99691.84
2022-10-09T08:06:51.716Z,99693.59
2022-10-09T08:08:24.220Z,99699.00
2022-10-09T08:09:57.434Z,99694.94
2022-10-09T08:11:31.839Z,99693.63
2022-10-09T08:13:05.044Z,99689.13
2022-10-09T08:14:38.321Z,99699.13
2022-10-09T08:16:13.902Z,99702.72
2022-10-09T08:17:46.213Z,99694.31
2022-10-09T08:19:19.440Z,99695.63
2022-10-09T08:20:59.938Z,99699.78
2022-10-09T08:22:33.175Z,99692.47
2022-10-09T08:24:07.047Z,99695.22
2022-10-09T08:25:40.298Z,99705.53
2022-10-09T08:27:13.599Z,99686.25
2022-10-09T08:28:51.000Z,99692.41
2022-10-09T08:30:24.439Z,99693.19
2022-10-09T08:31:59.140Z,99696.41
2022-10-09T08:33:32.578Z,99690.97
2022-10-09T08:35:06.453Z,99693.22
2022-10-09T08:36:39.820Z,99684.84
2022-10-09T08:38:30.929Z,99688.38
2022-10-09T08:40:09.057Z,99683.81
2022-10-09T08:41:48.097Z,99681.34
2022-10-09T08:43:26.861Z,99682.31
2022-10-09T08:45:00.140Z,99691.53
2022-10-09T08:46:43.920Z,99683.28
2022-10-09T08:48:23.645Z,99678.63
2022-10-09T08:50:01.467Z,99684.63
2022-10-09T08:51:39.834Z,99674.66
2022-10-09T08:53:26.748Z,99672.13
2022-10-09T08:55:05.108Z,99677.06
2022-10-09T08:56:38.602Z,99675.84
2022-10-09T08:58:17.291Z,99681.22
2022-10-09T08:59:50.658Z,99674.59
2022-10-09T09:01:32.879Z,99673.94
2022-10-09T09:03:44.926Z,99676.47
2022-10-09T09:05:31.661Z,99669.22
2022-10-09T09:07:13.493Z,99661.47
2022-10-09T09:08:53.436Z,99675.56
2022-10-09T09:10:38.108Z,99661.25
2022-10-09T09:12:19.257Z,99660.97
2022-10-09T09:14:03.478Z,99653.97
2022-10-09T09:15:50.075Z,99653.88
2022-10-09T09:17:34.512Z,99652.88
2022-10-09T09:19:26.737Z,99649.22
2022-10-09T09:21:12.260Z,99640.88
2022-10-09T09:22:49.791Z,99650.19
2022-10-09T09:24:39.135Z,99647.63
2022-10-09T09:26:16.734Z,99642.59
2022-10-09T09:27:50.565Z,99644.31
2022-10-09T09:29:25.107Z,99652.63
2022-10-09T09:31:01.738Z,99633.03
2022-10-09T09:32:35.364Z,99645.41
2022-10-09T09:34:14.324Z,99645.91
2022-10-09T09:35:53.358Z,99641.13
2022-10-09T09:37:26.774Z,99636.81
2022-10-09T09:39:54.300Z,99636.22
2022-10-09T09:40:54.962Z,99632.53
2022-10-09T09:42:29.793Z,99634.13
2022-10-09T09:44:03.164Z,99634.00
2022-10-09T09:45:36.587Z,99641.50
2022-10-09T09:47:16.444Z,99636.44
2022-10-09T09:48:50.742Z,99642.81
2022-10-09T09:50:48.462Z,99636.06
2022-10-09T09:52:30.123Z,99634.47
2022-10-09T09:54:07.798Z,99639.34
2022-10-09T09:55:41.527Z,99632.38
2022-10-09T09:57:21.002Z,99618.75
2022-10-09T09:58:55.347Z,99631.97
2022-10-09T10:00:28.852Z,99622.94
2022-10-09T10:02:04.356Z,99619.47
2022-10-09T10:03:37.778Z,99618.03
2022-10-09T10:05:19.100Z,99618.03
2022-10-09T10:06:53.642Z,99621.22
2022-10-09T10:08:28.386Z,99601.13
2022-10-09T10:10:06.957Z,99621.22
2022-10-09T10:11:45.835Z,99622.22
2022-10-09T10:13:21.387Z,99620.56
2022-10-09T10:14:54.843Z,99617.28
2022-10-09T10:16:30.302Z,99617.63
2022-10-09T10:18:05.656Z,99619.38
2022-10-09T10:19:39.726Z,99612.59
2022-10-09T10:21:15.580Z,99612.69
2022-10-09T10:22:53.718Z,99609.31
2022-10-09T10:24:32.850Z,99606.16
2022-10-09T10:26:14.490Z,99603.22
2022-10-09T10:27:51.933Z,99614.06
2022-10-09T10:29:30.719Z,99612.22
2022-10-09T10:31:09.550Z,99597.34
2022-10-09T10:32:52.405Z,99599.34
2022-10-09T10:34:29.347Z,99595.41
2022-10-09T10:36:02.688Z,99592.16
2022-10-09T10:37:43.946Z,99592.78
2022-10-09T10:39:26.470Z,99578.88
2022-10-09T10:41:09.832Z,99589.00
2022-10-09T10:42:50.904Z,99587.31
2022-10-09T10:44:29.596Z,99597.56
2022-10-09T10:46:12.461Z,99594.81
2022-10-09T10:47:53.048Z,99565.97
2022-10-09T10:49:31.656Z,99579.47
2022-10-09T10:51:17.459Z,99587.22
2022-10-09T10:53:02.751Z,99578.69
2022-10-09T10:54:41.247Z,99571.66
2022-10-09T10:56:25.001Z,99568.75
2022-10-09T10:58:11.617Z,99571.84
2022-10-09T10:59:57.758Z,99572.31
2022-10-09T11:01:41.693Z,99572.69
2022-10-09T11:03:34.583Z,99570.28
2022-10-09T11:05:18.929Z,99562.47
2022-10-09T11:07:03.162Z,99557.81
2022-10-09T11:08:57.306Z,99554.41
2022-10-09T11:10:42.934Z,99556.38
2022-10-09T11:12:46.810Z,99551.84
2022-10-09T11:14:36.447Z,99563.31
2022-10-09T11:16:23.610Z,99560.78
2022-10-09T11:18:06.033Z,99567.34
2022-10-09T11:19:56.271Z,99549.69
2022-10-09T11:21:44.014Z,99551.59
2022-10-09T11:23:28.185Z,99550.34
2022-10-09T11:25:15.948Z,99545.28
2022-10-09T11:27:03.163Z,99539.88
2022-10-09T11:28:42.277Z,99540.78
2022-10-09T11:30:17.960Z,99537.56
2022-10-09T11:31:56.419Z,99538.59
2022-10-09T11:33:35.842Z,99536.59
2022-10-09T11:35:17.118Z,99544.06
2022-10-09T11:36:50.406Z,99534.13
2022-10-09T11:38:29.734Z,99537.06
2022-10-09T11:40:07.631Z,99522.44
2022-10-09T11:41:41.881Z,99540.56
2022-10-09T11:43:36.898Z,99532.19
2022-10-09T11:45:22.117Z,99533.97
2022-10-09T11:47:08.892Z,99528.97
2022-10-09T11:48:49.700Z,99535.25
2022-10-09T11:50:38.148Z,99533.59
2022-10-09T11:52:20.288Z,99537.88
2022-10-09T11:53:55.231Z,99535.59
2022-10-09T11:55:30.763Z,99535.00
2022-10-09T11:57:07.067Z,99533.28
2022-10-09T11:58:42.812Z,99528.16
2022-10-09T12:00:17.008Z,99531.28
2022-10-09T12:01:50.337Z,99516.72
2022-10-09T12:03:33.216Z,99536.94
2022-10-09T12:05:18.317Z,99532.25
2022-10-09T12:06:54.575Z,99527.44
2022-10-09T12:08:28.870Z,99521.03
2022-10-09T12:10:09.501Z,99529.69
2022-10-09T12:11:54.446Z,99519.88
2022-10-09T12:13:45.984Z,99524.28
2022-10-09T12:15:39.204Z,99526.72
2022-10-09T12:17:34.234Z,99519.59
2022-10-09T12:19:16.781Z,99519.34
2022-10-09T12:20:51.974Z,99522.47
2022-10-09T12:22:31.335Z,99526.19
2022-10-09T12:24:04.974Z,99523.59
2022-10-09T12:25:44.034Z,99524.19
2022-10-09T12:27:23.243Z,99509.97
2022-10-09T12:29:02.965Z,99517.06
2022-10-09T12:30:47.477Z,99513.09
2022-10-09T12:32:29.525Z,99520.81
2022-10-09T12:34:10.181Z,99514.81
2022-10-09T12:35:46.056Z,99520.22
2022-10-09T12:37:22.521Z,99507.53
2022-10-09T12:38:56.963Z,99515.09
2022-10-09T12:40:32.885Z,99512.84
2022-10-09T12:42:07.098Z,99505.16
2022-10-09T12:43:45.848Z,99512.00
2022-10-09T12:45:25.227Z,99506.06
2022-10-09T12:47:01.885Z,99518.84
2022-10-09T12:48:40.077Z,99516.31
2022-10-09T12:50:23.223Z,99512.00
2022-10-09T12:52:00.437Z,99519.97
2022-10-09T12:53:33.719Z,99508.47
2022-10-09T12:55:19.082Z,99511.03
2022-10-09T12:56:55.572Z,99524.25
2022-10-09T12:58:33.449Z,99509.50
2022-10-09T13:00:09.021Z,99507.06
2022-10-09T13:01:44.640Z,99520.84
2022-10-09T13:03:35.477Z,99505.31
2022-10-09T13:05:12.594Z,99507.50
2022-10-09T13:06:50.819Z,99505.78
2022-10-09T13:08:28.108Z,99515.88
2022-10-09T13:10:06.739Z,99519.00
2022-10-09T13:11:44.550Z,99501.47
2022-10-09T13:13:22.648Z,99511.88
2022-10-09T13:14:57.477Z,99508.59
2022-10-09T13:16:41.010Z,99513.00
2022-10-09T13:18:22.707Z,99504.44
2022-10-09T13:19:59.385Z,99505.16
2022-10-09T13:21:35.376Z,99496.59
2022-10-09T13:23:09.098Z,99503.72
2022-10-09T13:24:42.374Z,99504.31
2022-10-09T13:26:23.767Z,99502.91
2022-10-09T13:27:58.150Z,99497.78
2022-10-09T13:29:31.572Z,99499.03
2022-10-09T13:31:09.428Z,99503.03
2022-10-09T13:32:42.643Z,99489.88
2022-10-09T13:34:18.975Z,99499.41
2022-10-09T13:35:52.388Z,99497.41
2022-10-09T13:37:27.644Z,99498.88
2022-10-09T13:39:00.838Z,99505.72
2022-10-09T13:40:34.099Z,99501.75
2022-10-09T13:42:07.777Z,99504.19
2022-10-09T13:43:41.069Z,99499.75
2022-10-09T13:45:14.289Z,99499.03
2022-10-09T13:46:47.405Z,99500.00
2022-10-09T13:48:20.818Z,99500.00
2022-10-09T13:49:55.748Z,99498.03
2022-10-09T13:51:29.249Z,99500.75
2022-10-09T13:53:02.460Z,99490.94
2022-10-09T13:54:36.032Z,99501.75
2022-10-09T13:56:09.661Z,99505.16
2022-10-09T13:57:42.762Z,99503.19
2022-10-09T13:59:16.079Z,99506.91
2022-10-09T14:00:50.226Z,99511.31
2022-10-09T14:02:23.784Z,99506.91
2022-10-09T14:03:57.313Z,99503.72
2022-10-09T14:05:31.853Z,99506.16
2022-10-09T14:07:05.081Z,99503.72
2022-10-09T14:08:38.690Z,99509.13
2022-10-09T14:10:12.061Z,99509.13
2022-10-09T14:11:45.313Z,99504.28
2022-10-09T14:13:19.479Z,99512.22
2022-10-09T14:14:54.513Z,99507.25
2022-10-09T14:16:28.008Z,99505.53
2022-10-09T14:18:01.184Z,99513.78
2022-10-09T14:19:34.447Z,99508.53
2022-10-09T14:21:15.258Z,99505.34
2022-10-09T14:22:49.491Z,99507.59
2022-10-09T14:24:22.938Z,99514.97
2022-10-09T14:25:56.303Z,99508.13
2022-10-09T14:27:29.641Z,99510.13
2022-10-09T14:29:04.161Z,99510.25
2022-10-09T14:30:41.306Z,99515.81
2022-10-09T14:32:14.984Z,99521.44
2022-10-09T14:33:49.413Z,99529.66
2022-10-09T14:35:22.630Z,99519.13
2022-10-09T14:36:57.262Z,99518.09
2022-10-09T14:38:30.694Z,99514.41
2022-10-09T14:40:04.263Z,99525.47
2022-10-09T14:41:38.061Z,99519.34
2022-10-09T14:43:11.568Z,99518.50
2022-10-09T14:44:45.210Z,99520.44
2022-10-09T14:46:19.394Z,99524.16
2022-10-09T14:47:52.573Z,99524.28
2022-10-09T14:49:25.799Z,99519.88
2022-10-09T14:51:03.147Z,99521.25
2022-10-09T14:52:37.781Z,99527.78
2022-10-09T14:54:13.325Z,99528.03
2022-10-09T14:55:46.566Z,99514.59
2022-10-09T14:57:20.258Z,99532.50
2022-10-09T14:58:53.388Z,99529.34
2022-10-09T15:00:26.564Z,99540.66
2022-10-09T15:01:59.819Z,99537.50
2022-10-09T15:03:35.385Z,99535.19
2022-10-09T15:05:09.139Z,99536.31
2022-10-09T15:06:42.357Z,99541.81
2022-10-09T15:08:17.080Z,99538.50
2022-10-09T15:09:50.264Z,99544.66
2022-10-09T15:11:24.096Z,99545.41
2022-10-09T15:12:57.231Z,99550.38
2022-10-09T15:14:30.683Z,99559.34
2022-10-09T15:16:06.190Z,99557.41
2022-10-09T15:17:39.994Z,99550.53
2022-10-09T15:19:13.163Z,99556.41
2022-10-09T15:20:46.816Z,99555.44
2022-10-09T15:22:20.394Z,99553.25
2022-10-09T15:23:57.077Z,99559.34
2022-10-09T15:25:31.756Z,99560.34
2022-10-09T15:27:05.734Z,99554.88
2022-10-09T15:28:40.979Z,99558.72
2022-10-09T15:30:14.585Z,99565.09
2022-10-09T15:31:50.911Z,99560.47
2022-10-09T15:33:24.958Z,99562.19
2022-10-09T15:34:58.276Z,99563.91
2022-10-09T15:36:34.790Z,99567.44
2022-10-09T15:38:08.789Z,99563.03
2022-10-09T15:39:43.429Z,99567.44
2022-10-09T15:41:27.342Z,99570.97
2022-10-09T15:43:00.462Z,99568.28
2022-10-09T15:44:33.734Z,99572.88
2022-10-09T15:46:07.172Z,99573.84
2022-10-09T15:47:50.895Z,99584.88
2022-10-09T15:49:24.715Z,99579.34
2022-10-09T15:50:58.045Z,99580.91
2022-10-09T15:52:31.227Z,99587.59
2022-10-09T15:54:05.367Z,99578.28
2022-10-09T15:55:40.293Z,99581.44
2022-10-09T15:57:13.475Z,99590.06
2022-10-09T15:58:46.593Z,99592.25
2022-10-09T16:00:20.117Z,99593.78
2022-10-09T16:01:53.289Z,99595.75
2022-10-09T16:03:26.552Z,99600.03
2022-10-09T16:04:59.743Z,99597.28
2022-10-09T16:06:33.322Z,99608.47
2022-10-09T16:08:07.363Z,99604.59
2022-10-09T16:09:40.580Z,99605.91
2022-10-09T16:11:20.167Z,99607.25
2022-10-09T16:12:57.150Z,99613.34
2022-10-09T16:14:31.420Z,99623.78
2022-10-09T16:16:06.924Z,99627.88
2022-10-09T16:17:40.167Z,99622.19
2022-10-09T16:19:13.883Z,99622.03
2022-10-09T16:20:47.927Z,99635.56
2022-10-09T16:22:21.026Z,99628.44
2022-10-09T16:23:58.876Z,99633.78
2022-10-09T16:25:33.201Z,99629.06
2022-10-09T16:27:07.725Z,99629.66
2022-10-09T16:28:41.054Z,99622.97
2022-10-09T16:30:15.123Z,99633.31
2022-10-09T16:31:48.621Z,99633.41
2022-10-09T16:33:21.840Z,99631.81
2022-10-09T16:34:56.075Z,99631.13
2022-10-09T16:36:29.717Z,99642.94
2022-10-09T16:38:04.799Z,99640.53
2022-10-09T16:39:37.947Z,99642.03
2022-10-09T16:41:13.327Z,99646.25
2022-10-09T16:42:48.164Z,99648.66
2022-10-09T16:44:22.089Z,99653.75
2022-10-09T16:45:55.379Z,99650.13
2022-10-09T16:47:28.817Z,99650.06
2022-10-09T16:49:03.498Z,99653.41
2022-10-09T16:50:41.692Z,99654.84
2022-10-09T16:52:14.925Z,99665.09
2022-10-09T16:53:50.675Z,99651.47
2022-10-09T16:55:24.557Z,99670.16
2022-10-09T16:56:58.550Z,99668.69
2022-10-09T16:58:34.293Z,99673.47
2022-10-09T17:00:08.357Z,99681.97
2022-10-09T17:01:45.214Z,99679.56
2022-10-09T17:03:18.519Z,99685.31
2022-10-09T17:04:51.644Z,99685.00
2022-10-09T17:06:25.486Z,99686.22
2022-10-09T17:07:58.698Z,99682.38
2022-10-09T17:09:33.506Z,99686.53
2022-10-09T17:11:10.644Z,99685.25
2022-10-09T17:12:43.804Z,99690.09
2022-10-09T17:14:18.484Z,99692.19
2022-10-09T17:15:52.349Z,99686.44
2022-10-09T17:17:25.596Z,99689.41
2022-10-09T17:18:59.186Z,99695.09
2022-10-09T17:20:32.548Z,99690.72
2022-10-09T17:22:06.498Z,99693.56
2022-10-09T17:23:39.994Z,99696.84
2022-10-09T17:25:15.666Z,99703.28
2022-10-09T17:26:48.961Z,99706.91
2022-10-09T17:28:22.216Z,99704.41
2022-10-09T17:29:56.888Z,99704.78
2022-10-09T17:31:31.145Z,99698.63
2022-10-09T17:33:04.363Z,99709.41
2022-10-09T17:34:43.046Z,99697.09
2022-10-09T17:36:18.412Z,99701.69
2022-10-09T17:37:51.822Z,99707.19
2022-10-09T17:39:25.076Z,99708.22
2022-10-09T17:40:58.553Z,99701.31
2022-10-09T17:42:31.735Z,99709.59
2022-10-09T17:44:05.761Z,99712.69
2022-10-09T17:45:42.946Z,99720.19
2022-10-09T17:47:16.437Z,99723.53
2022-10-09T17:48:53.326Z,99715.06
2022-10-09T17:50:26.634Z,99726.59
2022-10-09T17:51:59.921Z,99705.97
2022-10-09T17:53:33.973Z,99725.34
2022-10-09T17:55:08.411Z,99722.16
2022-10-09T17:56:42.286Z,99735.50
2022-10-09T17:58:15.486Z,99742.75
2022-10-09T17:59:48.714Z,99742.88
2022-10-09T18:01:24.338Z,99731.97
2022-10-09T18:02:58.262Z,99745.25
2022-10-09T18:04:31.509Z,99751.84
2022-10-09T18:06:06.940Z,99755.97
2022-10-09T18:07:40.185Z,99750.03
2022-10-09T18:09:13.520Z,99758.34
2022-10-09T18:10:47.098Z,99757.94
2022-10-09T18:12:20.567Z,99766.97
2022-10-09T18:13:54.523Z,99769.09
2022-10-09T18:15:27.893Z,99765.06
2022-10-09T18:17:02.520Z,99775.31
2022-10-09T18:18:35.117Z,99767.75
2022-10-09T18:20:09.207Z,99770.41
2022-10-09T18:21:45.500Z,99776.78
2022-10-09T18:23:22.558Z,99776.06
2022-10-09T18:24:56.169Z,99774.63
2022-10-09T18:26:29.952Z,99781.75
2022-10-09T18:28:03.703Z,99779.09
2022-10-09T18:29:38.230Z,99785.28
2022-10-09T18:31:12.491Z,99787.00
2022-10-09T18:32:47.330Z,99783.41
2022-10-09T18:34:20.753Z,99778.06
2022-10-09T18:35:52.917Z,99783.56
2022-10-09T18:37:26.300Z,99785.72
2022-10-09T18:39:02.506Z,99783.31
2022-10-09T18:40:44.528Z,99788.03
2022-10-09T18:42:18.803Z,99789.06
2022-10-09T18:43:52.991Z,99771.94
2022-10-09T18:45:26.471Z,99786.84
2022-10-09T18:47:00.900Z,99789.16